sensor_id;sensor_type;location;lat;lon;timestamp;P1;P2;P0
60645;PMS5003;46462;32.608;-117.032;2023-05-18T00:00:37;11;11;
60645;PMS5003;46462;32.608;-117.032;2023-05-18T00:03:07;11;11;
60645;PMS5003;46462;32.608;-117.032;2023-05-18T00:05:38;11;10;
60645;PMS5003;46462;32.608;-117.032;2023-05-18T00:08:09;10;10;
60645;PMS5003;46462;32.608;-117.032;2023-05-18T00:10:39;9;9;
60645;PMS5003;46462;32.608;-117.032;2023-05-18T00:13:10;12;11;
60645;PMS5003;46462;32.608;-117.032;2023-05-18T00:15:41;12;12;
60645;PMS5003;46462;32.608;-117.032;2023-05-18T00:18:11;11;10;
60645;PMS5003;46462;32.608;-117.032;2023-05-18T00:20:42;11;10;
60645;PMS5003;46462;32.608;-117.032;2023-05-18T00:23:13;10;10;
60645;PMS5003;46462;32.608;-117.032;2023-05-18T00:25:43;12;12;
60645;PMS5003;46462;32.608;-117.032;2023-05-18T00:28:14;12;12;
60645;PMS5003;46462;32.608;-117.032;2023-05-18T00:30:45;10;10;
60645;PMS5003;46462;32.608;-117.032;2023-05-18T00:33:15;10;10;
60645;PMS5003;46462;32.608;-117.032;2023-05-18T00:35:46;11;11;
60645;PMS5003;46462;32.608;-117.032;2023-05-18T00:38:17;14;12;
60645;PMS5003;46462;32.608;-117.032;2023-05-18T00:40:48;12;12;
60645;PMS5003;46462;32.608;-117.032;2023-05-18T00:43:18;9;9;
60645;PMS5003;46462;32.608;-117.032;2023-05-18T00:45:49;9;9;
60645;PMS5003;46462;32.608;-117.032;2023-05-18T00:48:20;10;10;
60645;PMS5003;46462;32.608;-117.032;2023-05-18T00:50:50;11;11;
60645;PMS5003;46462;32.608;-117.032;2023-05-18T00:53:21;11;11;
60645;PMS5003;46462;32.608;-117.032;2023-05-18T00:55:52;11;11;
60645;PMS5003;46462;32.608;-117.032;2023-05-18T00:58:22;12;10;
60645;PMS5003;46462;32.608;-117.032;2023-05-18T01:00:53;10;10;
60645;PMS5003;46462;32.608;-117.032;2023-05-18T01:03:23;11;10;
60645;PMS5003;46462;32.608;-117.032;2023-05-18T01:05:54;11;11;
60645;PMS5003;46462;32.608;-117.032;2023-05-18T01:08:25;10;10;
60645;PMS5003;46462;32.608;-117.032;2023-05-18T01:10:57;10;10;
60645;PMS5003;46462;32.608;-117.032;2023-05-18T01:13:28;13;13;
60645;PMS5003;46462;32.608;-117.032;2023-05-18T01:15:56;13;12;
60645;PMS5003;46462;32.608;-117.032;2023-05-18T01:18:30;10;10;
60645;PMS5003;46462;32.608;-117.032;2023-05-18T01:20:58;12;11;
60645;PMS5003;46462;32.608;-117.032;2023-05-18T01:28:31;11;11;
60645;PMS5003;46462;32.608;-117.032;2023-05-18T01:31:01;13;12;
60645;PMS5003;46462;32.608;-117.032;2023-05-18T01:33:31;11;10;
60645;PMS5003;46462;32.608;-117.032;2023-05-18T01:36:02;12;11;
60645;PMS5003;46462;32.608;-117.032;2023-05-18T01:38:32;13;12;
60645;PMS5003;46462;32.608;-117.032;2023-05-18T01:41:07;12;12;
60645;PMS5003;46462;32.608;-117.032;2023-05-18T01:43:35;10;10;
60645;PMS5003;46462;32.608;-117.032;2023-05-18T01:46:08;11;11;
60645;PMS5003;46462;32.608;-117.032;2023-05-18T01:48:36;10;8;
60645;PMS5003;46462;32.608;-117.032;2023-05-18T01:51:06;12;12;
60645;PMS5003;46462;32.608;-117.032;2023-05-18T01:53:38;9;9;
60645;PMS5003;46462;32.608;-117.032;2023-05-18T01:56:07;9;9;
60645;PMS5003;46462;32.608;-117.032;2023-05-18T01:58:38;12;11;
60645;PMS5003;46462;32.608;-117.032;2023-05-18T02:01:08;12;11;
60645;PMS5003;46462;32.608;-117.032;2023-05-18T02:03:38;10;10;
60645;PMS5003;46462;32.608;-117.032;2023-05-18T02:06:09;11;10;
60645;PMS5003;46462;32.608;-117.032;2023-05-18T02:08:40;11;11;
60645;PMS5003;46462;32.608;-117.032;2023-05-18T02:11:10;10;10;
60645;PMS5003;46462;32.608;-117.032;2023-05-18T02:13:41;12;12;
60645;PMS5003;46462;32.608;-117.032;2023-05-18T02:16:12;9;8;
60645;PMS5003;46462;32.608;-117.032;2023-05-18T02:18:43;10;10;
60645;PMS5003;46462;32.608;-117.032;2023-05-18T02:21:13;11;10;
60645;PMS5003;46462;32.608;-117.032;2023-05-18T02:23:44;11;11;
60645;PMS5003;46462;32.608;-117.032;2023-05-18T02:26:15;12;12;
60645;PMS5003;46462;32.608;-117.032;2023-05-18T02:28:45;9;9;
60645;PMS5003;46462;32.608;-117.032;2023-05-18T02:31:16;11;10;
60645;PMS5003;46462;32.608;-117.032;2023-05-18T02:33:47;10;9;
60645;PMS5003;46462;32.608;-117.032;2023-05-18T02:36:17;11;10;
60645;PMS5003;46462;32.608;-117.032;2023-05-18T02:38:48;12;9;
60645;PMS5003;46462;32.608;-117.032;2023-05-18T02:41:18;8;8;
60645;PMS5003;46462;32.608;-117.032;2023-05-18T02:43:49;9;9;
60645;PMS5003;46462;32.608;-117.032;2023-05-18T02:46:20;9;9;
60645;PMS5003;46462;32.608;-117.032;2023-05-18T02:48:51;9;9;
60645;PMS5003;46462;32.608;-117.032;2023-05-18T02:51:21;10;10;
60645;PMS5003;46462;32.608;-117.032;2023-05-18T02:53:52;11;10;
60645;PMS5003;46462;32.608;-117.032;2023-05-18T02:56:22;10;10;
60645;PMS5003;46462;32.608;-117.032;2023-05-18T02:58:53;10;10;
60645;PMS5003;46462;32.608;-117.032;2023-05-18T03:01:24;7;6;
60645;PMS5003;46462;32.608;-117.032;2023-05-18T03:03:55;10;10;
60645;PMS5003;46462;32.608;-117.032;2023-05-18T03:06:25;10;10;
60645;PMS5003;46462;32.608;-117.032;2023-05-18T03:08:56;9;9;
60645;PMS5003;46462;32.608;-117.032;2023-05-18T03:11:26;9;9;
60645;PMS5003;46462;32.608;-117.032;2023-05-18T03:13:57;9;8;
60645;PMS5003;46462;32.608;-117.032;2023-05-18T03:16:27;10;9;
60645;PMS5003;46462;32.608;-117.032;2023-05-18T03:18:58;7;7;
60645;PMS5003;46462;32.608;-117.032;2023-05-18T03:21:29;8;8;
60645;PMS5003;46462;32.608;-117.032;2023-05-18T03:24:00;9;8;
60645;PMS5003;46462;32.608;-117.032;2023-05-18T03:26:30;10;9;
60645;PMS5003;46462;32.608;-117.032;2023-05-18T03:29:01;10;9;
60645;PMS5003;46462;32.608;-117.032;2023-05-18T03:31:32;7;7;
60645;PMS5003;46462;32.608;-117.032;2023-05-18T03:34:02;9;9;
60645;PMS5003;46462;32.608;-117.032;2023-05-18T03:36:33;9;9;
60645;PMS5003;46462;32.608;-117.032;2023-05-18T03:39:04;12;10;
60645;PMS5003;46462;32.608;-117.032;2023-05-18T03:41:34;9;7;
60645;PMS5003;46462;32.608;-117.032;2023-05-18T03:44:05;11;10;
60645;PMS5003;46462;32.608;-117.032;2023-05-18T03:46:36;10;10;
60645;PMS5003;46462;32.608;-117.032;2023-05-18T03:49:06;9;9;
60645;PMS5003;46462;32.608;-117.032;2023-05-18T03:51:37;9;9;
60645;PMS5003;46462;32.608;-117.032;2023-05-18T03:54:07;9;9;
60645;PMS5003;46462;32.608;-117.032;2023-05-18T03:56:38;10;10;
60645;PMS5003;46462;32.608;-117.032;2023-05-18T03:59:08;10;9;
60645;PMS5003;46462;32.608;-117.032;2023-05-18T04:01:39;10;10;
60645;PMS5003;46462;32.608;-117.032;2023-05-18T04:04:10;12;9;
60645;PMS5003;46462;32.608;-117.032;2023-05-18T04:06:40;9;9;
60645;PMS5003;46462;32.608;-117.032;2023-05-18T04:09:11;8;8;
60645;PMS5003;46462;32.608;-117.032;2023-05-18T04:11:42;8;8;
60645;PMS5003;46462;32.608;-117.032;2023-05-18T04:14:12;9;9;
60645;PMS5003;46462;32.608;-117.032;2023-05-18T04:16:43;10;10;
60645;PMS5003;46462;32.608;-117.032;2023-05-18T04:19:14;12;11;
60645;PMS5003;46462;32.608;-117.032;2023-05-18T04:21:44;9;8;
60645;PMS5003;46462;32.608;-117.032;2023-05-18T04:24:15;8;8;
60645;PMS5003;46462;32.608;-117.032;2023-05-18T04:26:46;9;9;
60645;PMS5003;46462;32.608;-117.032;2023-05-18T04:29:16;8;8;
60645;PMS5003;46462;32.608;-117.032;2023-05-18T04:31:47;8;8;
60645;PMS5003;46462;32.608;-117.032;2023-05-18T04:34:18;9;9;
60645;PMS5003;46462;32.608;-117.032;2023-05-18T04:36:49;6;6;
60645;PMS5003;46462;32.608;-117.032;2023-05-18T04:39:19;9;9;
60645;PMS5003;46462;32.608;-117.032;2023-05-18T04:41:50;9;9;
60645;PMS5003;46462;32.608;-117.032;2023-05-18T04:44:21;10;9;
60645;PMS5003;46462;32.608;-117.032;2023-05-18T04:46:52;10;10;
60645;PMS5003;46462;32.608;-117.032;2023-05-18T04:49:22;8;8;
60645;PMS5003;46462;32.608;-117.032;2023-05-18T04:51:53;8;8;
60645;PMS5003;46462;32.608;-117.032;2023-05-18T04:54:24;7;7;
60645;PMS5003;46462;32.608;-117.032;2023-05-18T04:56:54;7;7;
60645;PMS5003;46462;32.608;-117.032;2023-05-18T04:59:25;6;6;
60645;PMS5003;46462;32.608;-117.032;2023-05-18T05:01:56;7;7;
60645;PMS5003;46462;32.608;-117.032;2023-05-18T05:04:26;7;7;
60645;PMS5003;46462;32.608;-117.032;2023-05-18T05:06:57;8;8;
60645;PMS5003;46462;32.608;-117.032;2023-05-18T05:09:27;9;9;
60645;PMS5003;46462;32.608;-117.032;2023-05-18T05:11:58;9;9;
60645;PMS5003;46462;32.608;-117.032;2023-05-18T05:14:29;8;7;
60645;PMS5003;46462;32.608;-117.032;2023-05-18T05:16:59;8;8;
60645;PMS5003;46462;32.608;-117.032;2023-05-18T05:19:30;8;7;
60645;PMS5003;46462;32.608;-117.032;2023-05-18T05:22:01;7;7;
60645;PMS5003;46462;32.608;-117.032;2023-05-18T05:24:32;8;8;
60645;PMS5003;46462;32.608;-117.032;2023-05-18T05:27:02;10;9;
60645;PMS5003;46462;32.608;-117.032;2023-05-18T05:29:33;7;7;
60645;PMS5003;46462;32.608;-117.032;2023-05-18T05:32:05;8;8;
60645;PMS5003;46462;32.608;-117.032;2023-05-18T05:34:34;8;8;
60645;PMS5003;46462;32.608;-117.032;2023-05-18T05:37:05;8;8;
60645;PMS5003;46462;32.608;-117.032;2023-05-18T05:39:36;8;8;
60645;PMS5003;46462;32.608;-117.032;2023-05-18T05:42:06;10;9;
60645;PMS5003;46462;32.608;-117.032;2023-05-18T05:44:37;10;9;
60645;PMS5003;46462;32.608;-117.032;2023-05-18T05:47:08;8;8;
60645;PMS5003;46462;32.608;-117.032;2023-05-18T05:49:39;7;7;
60645;PMS5003;46462;32.608;-117.032;2023-05-18T05:52:09;8;8;
60645;PMS5003;46462;32.608;-117.032;2023-05-18T05:54:40;5;5;
60645;PMS5003;46462;32.608;-117.032;2023-05-18T05:57:11;6;6;
60645;PMS5003;46462;32.608;-117.032;2023-05-18T05:59:42;8;7;
60645;PMS5003;46462;32.608;-117.032;2023-05-18T06:02:12;8;8;
60645;PMS5003;46462;32.608;-117.032;2023-05-18T06:04:43;9;8;
60645;PMS5003;46462;32.608;-117.032;2023-05-18T06:07:18;8;7;
60645;PMS5003;46462;32.608;-117.032;2023-05-18T06:09:44;8;8;
60645;PMS5003;46462;32.608;-117.032;2023-05-18T06:12:14;5;5;
60645;PMS5003;46462;32.608;-117.032;2023-05-18T06:14:45;6;6;
60645;PMS5003;46462;32.608;-117.032;2023-05-18T06:17:16;7;7;
60645;PMS5003;46462;32.608;-117.032;2023-05-18T06:19:47;6;6;
60645;PMS5003;46462;32.608;-117.032;2023-05-18T06:22:17;7;7;
60645;PMS5003;46462;32.608;-117.032;2023-05-18T06:24:53;7;7;
60645;PMS5003;46462;32.608;-117.032;2023-05-18T06:27:19;7;7;
60645;PMS5003;46462;32.608;-117.032;2023-05-18T06:29:49;7;7;
60645;PMS5003;46462;32.608;-117.032;2023-05-18T06:32:20;9;8;
60645;PMS5003;46462;32.608;-117.032;2023-05-18T06:34:51;5;5;
60645;PMS5003;46462;32.608;-117.032;2023-05-18T06:37:22;7;7;
60645;PMS5003;46462;32.608;-117.032;2023-05-18T06:39:52;8;8;
60645;PMS5003;46462;32.608;-117.032;2023-05-18T06:42:28;7;7;
60645;PMS5003;46462;32.608;-117.032;2023-05-18T06:44:53;8;6;
60645;PMS5003;46462;32.608;-117.032;2023-05-18T06:47:24;6;6;
60645;PMS5003;46462;32.608;-117.032;2023-05-18T06:49:55;9;9;
60645;PMS5003;46462;32.608;-117.032;2023-05-18T06:52:26;6;6;
60645;PMS5003;46462;32.608;-117.032;2023-05-18T06:54:56;7;6;
60645;PMS5003;46462;32.608;-117.032;2023-05-18T06:57:27;4;4;
60645;PMS5003;46462;32.608;-117.032;2023-05-18T06:59:58;5;5;
60645;PMS5003;46462;32.608;-117.032;2023-05-18T07:02:28;5;4;
60645;PMS5003;46462;32.608;-117.032;2023-05-18T07:04:59;8;8;
60645;PMS5003;46462;32.608;-117.032;2023-05-18T07:07:30;6;6;
60645;PMS5003;46462;32.608;-117.032;2023-05-18T07:10:00;8;8;
60645;PMS5003;46462;32.608;-117.032;2023-05-18T07:12:31;7;7;
60645;PMS5003;46462;32.608;-117.032;2023-05-18T07:15:06;7;6;
60645;PMS5003;46462;32.608;-117.032;2023-05-18T07:17:36;7;7;
60645;PMS5003;46462;32.608;-117.032;2023-05-18T07:20:07;8;6;
60645;PMS5003;46462;32.608;-117.032;2023-05-18T07:22:36;6;6;
60645;PMS5003;46462;32.608;-117.032;2023-05-18T07:25:11;7;7;
60645;PMS5003;46462;32.608;-117.032;2023-05-18T07:27:41;7;6;
60645;PMS5003;46462;32.608;-117.032;2023-05-18T07:30:12;7;7;
60645;PMS5003;46462;32.608;-117.032;2023-05-18T07:32:42;7;6;
60645;PMS5003;46462;32.608;-117.032;2023-05-18T07:35:13;5;5;
60645;PMS5003;46462;32.608;-117.032;2023-05-18T07:37:44;8;8;
60645;PMS5003;46462;32.608;-117.032;2023-05-18T07:40:14;5;5;
60645;PMS5003;46462;32.608;-117.032;2023-05-18T07:42:45;6;6;
60645;PMS5003;46462;32.608;-117.032;2023-05-18T07:45:16;7;7;
60645;PMS5003;46462;32.608;-117.032;2023-05-18T07:47:47;5;5;
60645;PMS5003;46462;32.608;-117.032;2023-05-18T07:50:17;6;6;
60645;PMS5003;46462;32.608;-117.032;2023-05-18T07:52:48;7;6;
60645;PMS5003;46462;32.608;-117.032;2023-05-18T07:55:19;6;6;
60645;PMS5003;46462;32.608;-117.032;2023-05-18T07:57:49;7;7;
60645;PMS5003;46462;32.608;-117.032;2023-05-18T08:00:20;6;6;
60645;PMS5003;46462;32.608;-117.032;2023-05-18T08:02:51;7;7;
60645;PMS5003;46462;32.608;-117.032;2023-05-18T08:05:21;7;7;
60645;PMS5003;46462;32.608;-117.032;2023-05-18T08:07:52;5;5;
60645;PMS5003;46462;32.608;-117.032;2023-05-18T08:10:23;5;5;
60645;PMS5003;46462;32.608;-117.032;2023-05-18T08:12:54;8;6;
60645;PMS5003;46462;32.608;-117.032;2023-05-18T08:15:24;5;5;
60645;PMS5003;46462;32.608;-117.032;2023-05-18T08:17:55;6;6;
60645;PMS5003;46462;32.608;-117.032;2023-05-18T08:20:26;6;5;
60645;PMS5003;46462;32.608;-117.032;2023-05-18T08:22:56;5;4;
60645;PMS5003;46462;32.608;-117.032;2023-05-18T08:25:27;9;9;
60645;PMS5003;46462;32.608;-117.032;2023-05-18T08:27:58;6;5;
60645;PMS5003;46462;32.608;-117.032;2023-05-18T08:30:28;8;7;
60645;PMS5003;46462;32.608;-117.032;2023-05-18T08:32:59;6;6;
60645;PMS5003;46462;32.608;-117.032;2023-05-18T08:35:29;8;8;
60645;PMS5003;46462;32.608;-117.032;2023-05-18T08:38:00;7;7;
60645;PMS5003;46462;32.608;-117.032;2023-05-18T08:40:32;8;7;
60645;PMS5003;46462;32.608;-117.032;2023-05-18T08:43:02;5;5;
60645;PMS5003;46462;32.608;-117.032;2023-05-18T08:45:35;6;6;
60645;PMS5003;46462;32.608;-117.032;2023-05-18T08:48:03;8;8;
60645;PMS5003;46462;32.608;-117.032;2023-05-18T08:50:34;6;6;
60645;PMS5003;46462;32.608;-117.032;2023-05-18T08:53:05;5;5;
60645;PMS5003;46462;32.608;-117.032;2023-05-18T08:55:35;6;5;
60645;PMS5003;46462;32.608;-117.032;2023-05-18T08:58:06;7;7;
60645;PMS5003;46462;32.608;-117.032;2023-05-18T09:00:36;7;6;
60645;PMS5003;46462;32.608;-117.032;2023-05-18T09:03:07;5;4;
60645;PMS5003;46462;32.608;-117.032;2023-05-18T09:05:38;5;5;
60645;PMS5003;46462;32.608;-117.032;2023-05-18T09:08:09;7;7;
60645;PMS5003;46462;32.608;-117.032;2023-05-18T09:10:39;6;5;
60645;PMS5003;46462;32.608;-117.032;2023-05-18T09:13:10;7;7;
60645;PMS5003;46462;32.608;-117.032;2023-05-18T09:15:40;6;6;
60645;PMS5003;46462;32.608;-117.032;2023-05-18T09:18:11;7;7;
60645;PMS5003;46462;32.608;-117.032;2023-05-18T09:20:42;7;7;
60645;PMS5003;46462;32.608;-117.032;2023-05-18T09:23:14;5;5;
60645;PMS5003;46462;32.608;-117.032;2023-05-18T09:25:44;6;6;
60645;PMS5003;46462;32.608;-117.032;2023-05-18T09:30:45;6;6;
60645;PMS5003;46462;32.608;-117.032;2023-05-18T09:33:16;7;7;
60645;PMS5003;46462;32.608;-117.032;2023-05-18T09:35:46;6;6;
60645;PMS5003;46462;32.608;-117.032;2023-05-18T09:38:19;6;6;
60645;PMS5003;46462;32.608;-117.032;2023-05-18T09:40:48;6;6;
60645;PMS5003;46462;32.608;-117.032;2023-05-18T09:43:18;6;6;
60645;PMS5003;46462;32.608;-117.032;2023-05-18T09:45:49;5;5;
60645;PMS5003;46462;32.608;-117.032;2023-05-18T09:48:19;5;5;
60645;PMS5003;46462;32.608;-117.032;2023-05-18T09:50:50;6;5;
60645;PMS5003;46462;32.608;-117.032;2023-05-18T09:53:21;6;6;
60645;PMS5003;46462;32.608;-117.032;2023-05-18T09:55:52;6;6;
60645;PMS5003;46462;32.608;-117.032;2023-05-18T09:58:22;7;6;
60645;PMS5003;46462;32.608;-117.032;2023-05-18T10:00:53;7;7;
60645;PMS5003;46462;32.608;-117.032;2023-05-18T10:03:24;6;6;
60645;PMS5003;46462;32.608;-117.032;2023-05-18T10:06:03;4;4;
60645;PMS5003;46462;32.608;-117.032;2023-05-18T10:08:26;8;6;
60645;PMS5003;46462;32.608;-117.032;2023-05-18T10:10:56;5;5;
60645;PMS5003;46462;32.608;-117.032;2023-05-18T10:13:29;6;6;
60645;PMS5003;46462;32.608;-117.032;2023-05-18T10:15:58;7;7;
60645;PMS5003;46462;32.608;-117.032;2023-05-18T10:18:29;6;5;
60645;PMS5003;46462;32.608;-117.032;2023-05-18T10:21:00;6;6;
60645;PMS5003;46462;32.608;-117.032;2023-05-18T10:23:31;9;8;
60645;PMS5003;46462;32.608;-117.032;2023-05-18T10:26:00;6;6;
60645;PMS5003;46462;32.608;-117.032;2023-05-18T10:28:40;6;6;
60645;PMS5003;46462;32.608;-117.032;2023-05-18T10:31:01;6;6;
60645;PMS5003;46462;32.608;-117.032;2023-05-18T10:33:32;6;6;
60645;PMS5003;46462;32.608;-117.032;2023-05-18T10:36:03;6;6;
60645;PMS5003;46462;32.608;-117.032;2023-05-18T10:38:33;5;5;
60645;PMS5003;46462;32.608;-117.032;2023-05-18T10:41:04;7;7;
60645;PMS5003;46462;32.608;-117.032;2023-05-18T10:43:35;7;7;
60645;PMS5003;46462;32.608;-117.032;2023-05-18T10:46:06;7;7;
60645;PMS5003;46462;32.608;-117.032;2023-05-18T10:48:37;8;7;
60645;PMS5003;46462;32.608;-117.032;2023-05-18T10:51:07;6;6;
60645;PMS5003;46462;32.608;-117.032;2023-05-18T10:53:38;7;7;
60645;PMS5003;46462;32.608;-117.032;2023-05-18T10:56:08;7;7;
60645;PMS5003;46462;32.608;-117.032;2023-05-18T10:58:39;7;7;
60645;PMS5003;46462;32.608;-117.032;2023-05-18T11:01:10;6;6;
60645;PMS5003;46462;32.608;-117.032;2023-05-18T11:03:40;7;7;
60645;PMS5003;46462;32.608;-117.032;2023-05-18T11:06:12;6;6;
60645;PMS5003;46462;32.608;-117.032;2023-05-18T11:08:42;6;6;
60645;PMS5003;46462;32.608;-117.032;2023-05-18T11:11:13;6;6;
60645;PMS5003;46462;32.608;-117.032;2023-05-18T11:13:44;7;7;
60645;PMS5003;46462;32.608;-117.032;2023-05-18T11:16:14;6;6;
60645;PMS5003;46462;32.608;-117.032;2023-05-18T11:18:45;8;8;
60645;PMS5003;46462;32.608;-117.032;2023-05-18T11:21:20;7;7;
60645;PMS5003;46462;32.608;-117.032;2023-05-18T11:26:16;4;4;
60645;PMS5003;46462;32.608;-117.032;2023-05-18T11:28:47;8;8;
60645;PMS5003;46462;32.608;-117.032;2023-05-18T11:31:18;7;7;
60645;PMS5003;46462;32.608;-117.032;2023-05-18T11:33:49;8;8;
60645;PMS5003;46462;32.608;-117.032;2023-05-18T11:36:21;8;7;
60645;PMS5003;46462;32.608;-117.032;2023-05-18T11:38:51;7;7;
60645;PMS5003;46462;32.608;-117.032;2023-05-18T11:46:22;6;5;
60645;PMS5003;46462;32.608;-117.032;2023-05-18T11:48:53;6;6;
60645;PMS5003;46462;32.608;-117.032;2023-05-18T11:51:24;5;5;
60645;PMS5003;46462;32.608;-117.032;2023-05-18T11:53:54;6;6;
60645;PMS5003;46462;32.608;-117.032;2023-05-18T11:56:25;7;7;
60645;PMS5003;46462;32.608;-117.032;2023-05-18T12:01:26;9;7;
60645;PMS5003;46462;32.608;-117.032;2023-05-18T12:03:57;6;6;
60645;PMS5003;46462;32.608;-117.032;2023-05-18T12:06:28;6;6;
60645;PMS5003;46462;32.608;-117.032;2023-05-18T12:08:59;5;5;
60645;PMS5003;46462;32.608;-117.032;2023-05-18T12:11:30;7;7;
60645;PMS5003;46462;32.608;-117.032;2023-05-18T12:14:00;5;5;
60645;PMS5003;46462;32.608;-117.032;2023-05-18T12:16:31;7;6;
60645;PMS5003;46462;32.608;-117.032;2023-05-18T12:19:01;8;8;
60645;PMS5003;46462;32.608;-117.032;2023-05-18T12:21:34;6;6;
60645;PMS5003;46462;32.608;-117.032;2023-05-18T12:24:03;4;4;
60645;PMS5003;46462;32.608;-117.032;2023-05-18T12:26:33;5;5;
60645;PMS5003;46462;32.608;-117.032;2023-05-18T12:29:04;8;7;
60645;PMS5003;46462;32.608;-117.032;2023-05-18T12:31:38;6;6;
60645;PMS5003;46462;32.608;-117.032;2023-05-18T12:34:07;9;8;
60645;PMS5003;46462;32.608;-117.032;2023-05-18T12:36:39;6;6;
60645;PMS5003;46462;32.608;-117.032;2023-05-18T12:39:07;7;7;
60645;PMS5003;46462;32.608;-117.032;2023-05-18T12:41:38;6;6;
60645;PMS5003;46462;32.608;-117.032;2023-05-18T12:44:08;7;7;
60645;PMS5003;46462;32.608;-117.032;2023-05-18T12:46:40;5;5;
60645;PMS5003;46462;32.608;-117.032;2023-05-18T12:49:10;8;8;
60645;PMS5003;46462;32.608;-117.032;2023-05-18T12:51:40;7;7;
60645;PMS5003;46462;32.608;-117.032;2023-05-18T12:54:11;5;4;
60645;PMS5003;46462;32.608;-117.032;2023-05-18T12:59:16;5;5;
60645;PMS5003;46462;32.608;-117.032;2023-05-18T13:01:43;7;7;
60645;PMS5003;46462;32.608;-117.032;2023-05-18T13:04:14;8;8;
60645;PMS5003;46462;32.608;-117.032;2023-05-18T13:06:44;6;6;
60645;PMS5003;46462;32.608;-117.032;2023-05-18T13:09:15;6;5;
60645;PMS5003;46462;32.608;-117.032;2023-05-18T13:11:47;5;5;
60645;PMS5003;46462;32.608;-117.032;2023-05-18T13:14:19;6;6;
60645;PMS5003;46462;32.608;-117.032;2023-05-18T13:16:48;6;6;
60645;PMS5003;46462;32.608;-117.032;2023-05-18T13:19:18;6;6;
60645;PMS5003;46462;32.608;-117.032;2023-05-18T13:24:19;5;5;
60645;PMS5003;46462;32.608;-117.032;2023-05-18T13:26:50;6;6;
60645;PMS5003;46462;32.608;-117.032;2023-05-18T13:29:21;7;7;
60645;PMS5003;46462;32.608;-117.032;2023-05-18T13:31:51;7;7;
60645;PMS5003;46462;32.608;-117.032;2023-05-18T13:34:22;7;6;
60645;PMS5003;46462;32.608;-117.032;2023-05-18T13:36:53;5;5;
60645;PMS5003;46462;32.608;-117.032;2023-05-18T13:39:23;6;6;
60645;PMS5003;46462;32.608;-117.032;2023-05-18T13:41:54;7;7;
60645;PMS5003;46462;32.608;-117.032;2023-05-18T13:44:25;5;5;
60645;PMS5003;46462;32.608;-117.032;2023-05-18T13:46:55;6;6;
60645;PMS5003;46462;32.608;-117.032;2023-05-18T13:49:26;7;7;
60645;PMS5003;46462;32.608;-117.032;2023-05-18T13:51:57;7;6;
60645;PMS5003;46462;32.608;-117.032;2023-05-18T13:54:28;7;6;
60645;PMS5003;46462;32.608;-117.032;2023-05-18T13:56:58;6;6;
60645;PMS5003;46462;32.608;-117.032;2023-05-18T13:59:29;8;8;
60645;PMS5003;46462;32.608;-117.032;2023-05-18T14:02:00;6;6;
60645;PMS5003;46462;32.608;-117.032;2023-05-18T14:04:30;14;12;
60645;PMS5003;46462;32.608;-117.032;2023-05-18T14:07:01;15;14;
60645;PMS5003;46462;32.608;-117.032;2023-05-18T14:09:32;21;20;
60645;PMS5003;46462;32.608;-117.032;2023-05-18T14:12:03;20;19;
60645;PMS5003;46462;32.608;-117.032;2023-05-18T14:14:33;23;22;
60645;PMS5003;46462;32.608;-117.032;2023-05-18T14:17:04;21;21;
60645;PMS5003;46462;32.608;-117.032;2023-05-18T14:19:34;29;29;
60645;PMS5003;46462;32.608;-117.032;2023-05-18T14:22:04;31;28;
60645;PMS5003;46462;32.608;-117.032;2023-05-18T14:24:34;28;28;
60645;PMS5003;46462;32.608;-117.032;2023-05-18T14:27:05;27;27;
60645;PMS5003;46462;32.608;-117.032;2023-05-18T14:29:35;27;27;
60645;PMS5003;46462;32.608;-117.032;2023-05-18T14:32:06;35;32;
60645;PMS5003;46462;32.608;-117.032;2023-05-18T14:34:36;41;39;
60645;PMS5003;46462;32.608;-117.032;2023-05-18T14:37:06;37;36;
60645;PMS5003;46462;32.608;-117.032;2023-05-18T14:39:38;39;37;
60645;PMS5003;46462;32.608;-117.032;2023-05-18T14:42:07;34;31;
60645;PMS5003;46462;32.608;-117.032;2023-05-18T14:44:39;41;38;
60645;PMS5003;46462;32.608;-117.032;2023-05-18T14:47:08;34;32;
60645;PMS5003;46462;32.608;-117.032;2023-05-18T14:49:38;35;34;
60645;PMS5003;46462;32.608;-117.032;2023-05-18T14:52:08;40;37;
60645;PMS5003;46462;32.608;-117.032;2023-05-18T14:54:38;36;35;
60645;PMS5003;46462;32.608;-117.032;2023-05-18T14:57:09;42;38;
60645;PMS5003;46462;32.608;-117.032;2023-05-18T14:59:39;33;32;
60645;PMS5003;46462;32.608;-117.032;2023-05-18T15:02:09;34;33;
60645;PMS5003;46462;32.608;-117.032;2023-05-18T15:04:40;34;32;
60645;PMS5003;46462;32.608;-117.032;2023-05-18T15:07:11;36;34;
60645;PMS5003;46462;32.608;-117.032;2023-05-18T15:09:42;39;37;
60645;PMS5003;46462;32.608;-117.032;2023-05-18T15:12:13;37;35;
60645;PMS5003;46462;32.608;-117.032;2023-05-18T15:14:43;35;34;
60645;PMS5003;46462;32.608;-117.032;2023-05-18T15:17:14;35;32;
60645;PMS5003;46462;32.608;-117.032;2023-05-18T15:19:44;37;35;
60645;PMS5003;46462;32.608;-117.032;2023-05-18T15:22:14;38;34;
60645;PMS5003;46462;32.608;-117.032;2023-05-18T15:24:44;32;32;
60645;PMS5003;46462;32.608;-117.032;2023-05-18T15:27:15;32;30;
60645;PMS5003;46462;32.608;-117.032;2023-05-18T15:29:46;34;34;
60645;PMS5003;46462;32.608;-117.032;2023-05-18T15:32:15;35;32;
60645;PMS5003;46462;32.608;-117.032;2023-05-18T15:34:46;29;28;
60645;PMS5003;46462;32.608;-117.032;2023-05-18T15:37:16;31;29;
60645;PMS5003;46462;32.608;-117.032;2023-05-18T15:39:47;31;31;
60645;PMS5003;46462;32.608;-117.032;2023-05-18T15:42:18;28;25;
60645;PMS5003;46462;32.608;-117.032;2023-05-18T15:44:48;31;30;
60645;PMS5003;46462;32.608;-117.032;2023-05-18T15:47:18;30;27;
60645;PMS5003;46462;32.608;-117.032;2023-05-18T15:49:48;25;22;
60645;PMS5003;46462;32.608;-117.032;2023-05-18T15:52:18;25;23;
60645;PMS5003;46462;32.608;-117.032;2023-05-18T15:54:49;23;22;
60645;PMS5003;46462;32.608;-117.032;2023-05-18T15:57:20;25;23;
60645;PMS5003;46462;32.608;-117.032;2023-05-18T15:59:50;26;25;
60645;PMS5003;46462;32.608;-117.032;2023-05-18T16:02:21;24;23;
60645;PMS5003;46462;32.608;-117.032;2023-05-18T16:04:51;25;23;
60645;PMS5003;46462;32.608;-117.032;2023-05-18T16:07:22;25;24;
60645;PMS5003;46462;32.608;-117.032;2023-05-18T16:09:51;24;23;
60645;PMS5003;46462;32.608;-117.032;2023-05-18T16:12:22;21;21;
60645;PMS5003;46462;32.608;-117.032;2023-05-18T16:14:52;20;19;
60645;PMS5003;46462;32.608;-117.032;2023-05-18T16:17:23;23;20;
60645;PMS5003;46462;32.608;-117.032;2023-05-18T16:19:53;19;19;
60645;PMS5003;46462;32.608;-117.032;2023-05-18T16:22:23;21;19;
60645;PMS5003;46462;32.608;-117.032;2023-05-18T16:24:53;24;22;
60645;PMS5003;46462;32.608;-117.032;2023-05-18T16:27:24;19;18;
60645;PMS5003;46462;32.608;-117.032;2023-05-18T16:29:55;16;16;
60645;PMS5003;46462;32.608;-117.032;2023-05-18T16:32:26;23;23;
60645;PMS5003;46462;32.608;-117.032;2023-05-18T16:34:56;20;19;